createdAt,value
2023-01-27T00:01:33.687Z,47.29
2023-01-27T00:03:38.558Z,47.18
2023-01-27T00:05:40.811Z,47.31
2023-01-27T00:07:47.101Z,47.49
2023-01-27T00:09:49.262Z,47.75
2023-01-27T00:12:17.631Z,47.18
2023-01-27T00:14:19.801Z,47.11
2023-01-27T00:16:21.988Z,47.08
2023-01-27T00:18:24.719Z,47.41
2023-01-27T00:20:45.594Z,47.18
2023-01-27T00:23:06.283Z,47.50
2023-01-27T00:25:08.679Z,47.13
2023-01-27T00:27:11.173Z,47.00
2023-01-27T00:29:20.660Z,46.90
2023-01-27T00:31:41.506Z,47.27
2023-01-27T00:33:49.746Z,47.07
2023-01-27T00:36:07.231Z,46.49
2023-01-27T00:38:09.267Z,46.56
2023-01-27T00:40:13.698Z,46.58
2023-01-27T00:42:16.527Z,46.87
2023-01-27T00:44:18.818Z,47.15
2023-01-27T00:46:23.314Z,46.32
2023-01-27T00:48:25.559Z,46.76
2023-01-27T00:50:27.864Z,46.32
2023-01-27T00:52:30.118Z,45.97
2023-01-27T00:54:32.398Z,46.40
2023-01-27T00:56:35.271Z,46.86
2023-01-27T00:58:37.901Z,46.29
2023-01-27T01:00:40.592Z,46.65
2023-01-27T01:02:42.793Z,46.42
2023-01-27T01:04:45.072Z,46.32
2023-01-27T01:06:47.237Z,45.85
2023-01-27T01:08:55.581Z,46.25
2023-01-27T01:10:58.049Z,46.48
2023-01-27T01:13:00.262Z,46.60
2023-01-27T01:15:02.469Z,46.84
2023-01-27T01:17:04.681Z,46.90
2023-01-27T01:19:06.904Z,46.74
2023-01-27T01:21:11.228Z,47.36
2023-01-27T01:23:14.473Z,47.41
2023-01-27T01:25:16.746Z,47.49
2023-01-27T01:27:19.016Z,47.12
2023-01-27T01:29:21.193Z,46.86
2023-01-27T01:31:26.037Z,47.25
2023-01-27T01:33:28.495Z,46.98
2023-01-27T01:35:30.964Z,47.18
2023-01-27T01:37:33.303Z,47.90
2023-01-27T01:39:35.628Z,47.43
2023-01-27T01:41:37.963Z,47.27
2023-01-27T01:43:40.183Z,46.71
2023-01-27T01:45:50.475Z,47.29
2023-01-27T01:47:52.554Z,47.09
2023-01-27T01:49:54.943Z,47.29
2023-01-27T01:52:09.867Z,46.93
2023-01-27T01:54:14.883Z,46.54
2023-01-27T01:56:23.021Z,46.77
2023-01-27T01:58:28.399Z,46.58
2023-01-27T02:00:33.169Z,47.08
2023-01-27T02:02:37.175Z,46.73
2023-01-27T02:04:52.605Z,46.44
2023-01-27T02:07:10.671Z,46.97
2023-01-27T02:09:12.878Z,47.16
2023-01-27T02:11:15.045Z,47.02
2023-01-27T02:13:17.331Z,47.28
2023-01-27T02:15:21.707Z,47.35
2023-01-27T02:17:24.157Z,47.58
2023-01-27T02:19:49.289Z,47.45
2023-01-27T02:21:57.230Z,47.70
2023-01-27T02:24:02.160Z,48.27
2023-01-27T02:26:25.066Z,47.99
2023-01-27T02:28:29.515Z,48.05
2023-01-27T02:30:32.533Z,47.67
2023-01-27T02:32:34.949Z,48.27
2023-01-27T02:34:38.473Z,48.39
2023-01-27T02:36:56.662Z,47.92
2023-01-27T02:39:02.405Z,47.79
2023-01-27T02:41:37.698Z,47.72
2023-01-27T02:43:39.886Z,48.29
2023-01-27T02:45:42.638Z,48.59
2023-01-27T02:47:44.937Z,48.18
2023-01-27T02:49:47.223Z,48.08
2023-01-27T02:51:49.797Z,48.73
2023-01-27T02:53:52.220Z,48.47
2023-01-27T02:55:58.761Z,48.64
2023-01-27T02:58:00.895Z,47.84
2023-01-27T03:00:14.537Z,48.08
2023-01-27T03:02:23.082Z,48.03
2023-01-27T03:04:25.652Z,48.26
2023-01-27T03:06:28.098Z,47.87
2023-01-27T03:08:33.237Z,47.96
2023-01-27T03:10:35.552Z,47.81
2023-01-27T03:12:37.919Z,48.24
2023-01-27T03:14:58.828Z,47.63
2023-01-27T03:17:19.736Z,48.46
2023-01-27T03:19:22.419Z,48.40
2023-01-27T03:21:25.345Z,48.18
2023-01-27T03:23:28.072Z,48.50
2023-01-27T03:25:30.109Z,48.24
2023-01-27T03:27:32.635Z,48.19
2023-01-27T03:29:59.347Z,48.36
2023-01-27T03:32:01.988Z,48.21
2023-01-27T03:34:05.824Z,48.55
2023-01-27T03:36:32.987Z,48.60
2023-01-27T03:38:54.129Z,48.84
2023-01-27T03:41:15.173Z,48.99
2023-01-27T03:43:36.255Z,49.47
2023-01-27T03:46:00.227Z,49.19
2023-01-27T03:48:02.737Z,49.85
2023-01-27T03:50:11.346Z,49.62
2023-01-27T03:52:13.670Z,49.54
2023-01-27T03:54:16.130Z,49.93
2023-01-27T03:56:20.742Z,50.31
2023-01-27T03:58:26.085Z,50.25
2023-01-27T04:00:28.335Z,50.22
2023-01-27T04:02:52.351Z,51.16
2023-01-27T04:05:13.403Z,50.86
2023-01-27T04:07:20.649Z,50.67
2023-01-27T04:09:28.428Z,51.25
2023-01-27T04:11:49.527Z,51.12
2023-01-27T04:13:51.968Z,50.90
2023-01-27T04:15:57.006Z,50.99
2023-01-27T04:17:59.541Z,51.36
2023-01-27T04:20:03.575Z,51.11
2023-01-27T04:22:06.478Z,51.46
2023-01-27T04:24:19.291Z,51.38
2023-01-27T04:26:22.621Z,50.92
2023-01-27T04:28:41.803Z,51.68
2023-01-27T04:30:46.045Z,51.23
2023-01-27T04:32:48.424Z,51.58
2023-01-27T04:34:51.189Z,51.56
2023-01-27T04:36:54.256Z,51.79
2023-01-27T04:38:56.556Z,51.54
2023-01-27T04:40:58.580Z,52.26
2023-01-27T04:43:00.627Z,51.87
2023-01-27T04:45:02.880Z,51.92
2023-01-27T04:47:05.141Z,51.80
2023-01-27T04:49:08.280Z,52.04
2023-01-27T04:51:10.345Z,51.72
2023-01-27T04:53:12.590Z,51.20
2023-01-27T04:55:15.693Z,51.60
2023-01-27T04:57:18.581Z,51.45
2023-01-27T04:59:20.816Z,51.77
2023-01-27T05:01:23.310Z,51.62
2023-01-27T05:03:25.711Z,52.26
2023-01-27T05:05:27.971Z,51.80
2023-01-27T05:07:33.141Z,51.47
2023-01-27T05:09:35.533Z,51.47
2023-01-27T05:11:37.565Z,51.32
2023-01-27T05:13:41.057Z,51.72
2023-01-27T05:15:43.048Z,51.56
2023-01-27T05:17:45.460Z,51.95
2023-01-27T05:19:52.183Z,51.83
2023-01-27T05:21:54.385Z,51.91
2023-01-27T05:23:56.756Z,52.26
2023-01-27T05:26:03.947Z,51.95
2023-01-27T05:28:06.158Z,51.91
2023-01-27T05:30:08.876Z,52.07
2023-01-27T05:32:11.359Z,51.81
2023-01-27T05:34:13.439Z,51.89
2023-01-27T05:36:17.869Z,52.03
2023-01-27T05:38:20.274Z,52.14
2023-01-27T05:40:22.334Z,52.62
2023-01-27T05:42:24.302Z,52.68
2023-01-27T05:44:26.229Z,52.39
2023-01-27T05:46:33.843Z,52.90
2023-01-27T05:48:39.011Z,52.88
2023-01-27T05:50:41.177Z,52.78
2023-01-27T05:52:43.260Z,52.62
2023-01-27T05:54:45.572Z,52.86
2023-01-27T05:56:47.656Z,53.55
2023-01-27T05:58:50.145Z,53.36
2023-01-27T06:00:53.147Z,52.80
2023-01-27T06:02:55.294Z,52.89
2023-01-27T06:04:57.486Z,53.02
2023-01-27T06:07:01.028Z,53.33
2023-01-27T06:09:03.619Z,52.86
2023-01-27T06:11:06.360Z,53.03
2023-01-27T06:13:08.446Z,53.06
2023-01-27T06:15:11.914Z,53.12
2023-01-27T06:17:15.336Z,52.85
2023-01-27T06:19:17.488Z,53.03
2023-01-27T06:21:21.151Z,53.00
2023-01-27T06:23:23.387Z,52.66
2023-01-27T06:25:25.458Z,53.46
2023-01-27T06:27:27.646Z,53.37
2023-01-27T06:29:31.122Z,53.16
2023-01-27T06:31:33.955Z,53.11
2023-01-27T06:33:37.041Z,53.61
2023-01-27T06:35:41.059Z,53.95
2023-01-27T06:37:45.310Z,54.08
2023-01-27T06:39:52.195Z,54.35
2023-01-27T06:41:56.701Z,54.57
2023-01-27T06:43:58.912Z,54.66
2023-01-27T06:46:03.003Z,54.87
2023-01-27T06:48:08.690Z,54.91
2023-01-27T06:50:12.395Z,54.27
2023-01-27T06:52:17.083Z,55.79
2023-01-27T06:54:19.622Z,55.23
2023-01-27T06:56:21.815Z,55.19
2023-01-27T06:58:24.126Z,55.33
2023-01-27T07:00:26.608Z,55.31
2023-01-27T07:02:28.721Z,55.65
2023-01-27T07:04:31.375Z,55.74
2023-01-27T07:06:33.714Z,55.87
2023-01-27T07:08:35.974Z,56.07
2023-01-27T07:10:39.187Z,56.83
2023-01-27T07:12:41.438Z,56.29
2023-01-27T07:14:43.658Z,56.56
2023-01-27T07:24:01.463Z,56.93
2023-01-27T07:26:07.811Z,56.49
2023-01-27T07:28:18.083Z,56.87
2023-01-27T07:30:20.862Z,57.19
2023-01-27T07:32:23.407Z,56.61
2023-01-27T07:34:25.583Z,56.92
2023-01-27T07:36:27.675Z,57.19
2023-01-27T07:38:29.811Z,57.15
2023-01-27T07:40:32.047Z,57.37
2023-01-27T07:42:34.106Z,57.23
2023-01-27T07:44:36.249Z,57.56
2023-01-27T07:46:38.343Z,57.50
2023-01-27T07:48:40.824Z,57.48
2023-01-27T07:50:42.974Z,57.55
2023-01-27T07:52:44.940Z,57.82
2023-01-27T07:54:47.222Z,57.90
2023-01-27T07:56:49.524Z,58.11
2023-01-27T07:58:56.427Z,58.43
2023-01-27T08:00:58.523Z,57.95
2023-01-27T08:03:02.610Z,58.43
2023-01-27T08:05:04.904Z,58.22
2023-01-27T08:07:07.386Z,58.25
2023-01-27T08:09:09.668Z,58.85
2023-01-27T08:11:14.454Z,58.61
2023-01-27T08:13:16.687Z,58.21
2023-01-27T08:15:19.388Z,58.63
2023-01-27T08:17:21.647Z,58.45
2023-01-27T08:19:24.090Z,58.73
2023-01-27T08:21:27.385Z,59.09
2023-01-27T08:23:29.942Z,59.65
2023-01-27T08:25:33.017Z,58.83
2023-01-27T08:27:35.353Z,59.21
2023-01-27T08:29:40.605Z,58.70
2023-01-27T08:31:43.004Z,59.13
2023-01-27T08:33:49.958Z,59.04
2023-01-27T08:35:54.900Z,60.13
2023-01-27T08:37:56.933Z,59.47
2023-01-27T08:39:58.955Z,59.11
2023-01-27T08:42:03.414Z,59.18
2023-01-27T08:44:06.157Z,59.50
2023-01-27T08:46:09.600Z,59.67
2023-01-27T08:48:12.419Z,59.78
2023-01-27T08:50:14.772Z,59.54
2023-01-27T08:52:19.931Z,59.79
2023-01-27T08:54:22.283Z,60.03
2023-01-27T08:56:24.712Z,59.83
2023-01-27T08:58:27.057Z,60.29
2023-01-27T09:00:29.192Z,60.69
2023-01-27T09:02:31.911Z,60.04
2023-01-27T09:04:35.911Z,60.60
2023-01-27T09:06:38.282Z,61.08
2023-01-27T09:08:41.672Z,60.67
2023-01-27T09:10:43.855Z,61.06
2023-01-27T09:12:46.012Z,60.50
2023-01-27T09:14:48.176Z,60.59
2023-01-27T09:16:50.228Z,61.60
2023-01-27T09:18:52.758Z,61.15
2023-01-27T09:20:55.170Z,61.75
2023-01-27T09:22:57.889Z,61.55
2023-01-27T09:25:00.541Z,61.38
2023-01-27T09:27:02.676Z,62.24
2023-01-27T09:29:04.713Z,62.14
2023-01-27T09:31:09.743Z,61.34
2023-01-27T09:33:16.056Z,63.08
2023-01-27T09:35:18.581Z,61.77
2023-01-27T09:37:21.101Z,62.07
2023-01-27T09:39:24.309Z,61.90
2023-01-27T09:41:38.358Z,61.59
2023-01-27T09:44:08.281Z,63.10
2023-01-27T09:46:35.152Z,63.81
2023-01-27T09:48:43.120Z,62.73
2023-01-27T09:51:25.322Z,63.05
2023-01-27T09:54:12.049Z,63.50
2023-01-27T09:56:28.617Z,63.48
2023-01-27T09:58:42.611Z,63.43
2023-01-27T10:01:18.631Z,63.71
2023-01-27T10:03:43.524Z,62.77
2023-01-27T10:05:53.311Z,61.83
2023-01-27T10:08:07.656Z,62.26
2023-01-27T10:10:37.685Z,63.21
2023-01-27T10:12:56.909Z,62.29
2023-01-27T10:15:07.781Z,62.57
2023-01-27T10:17:31.461Z,62.39
2023-01-27T10:19:51.773Z,62.22
2023-01-27T10:22:12.806Z,61.61
2023-01-27T10:24:48.083Z,61.46
2023-01-27T10:26:54.887Z,61.88
2023-01-27T10:29:30.865Z,61.68
2023-01-27T10:31:37.539Z,60.96
2023-01-27T10:33:54.578Z,61.04
2023-01-27T10:36:08.000Z,60.99
2023-01-27T10:38:13.149Z,60.94
2023-01-27T10:40:50.117Z,61.36
2023-01-27T10:42:58.601Z,61.38
2023-01-27T10:45:06.804Z,60.70
2023-01-27T10:47:16.002Z,60.68
2023-01-27T10:49:36.074Z,60.97
2023-01-27T10:51:45.896Z,60.46
2023-01-27T10:54:04.441Z,59.83
2023-01-27T10:56:18.258Z,59.97
2023-01-27T10:58:48.347Z,59.55
2023-01-27T11:01:19.943Z,59.36
2023-01-27T11:03:33.904Z,58.96
2023-01-27T11:05:42.529Z,58.37
2023-01-27T11:08:00.210Z,58.29
2023-01-27T11:10:14.386Z,58.06
2023-01-27T11:12:21.245Z,57.86
2023-01-27T11:14:32.635Z,56.56
2023-01-27T11:16:40.617Z,55.66
2023-01-27T11:18:46.454Z,55.40
2023-01-27T11:20:55.413Z,54.68
2023-01-27T11:23:10.089Z,53.90
2023-01-27T11:25:22.668Z,53.58
2023-01-27T11:27:33.525Z,53.61
2023-01-27T11:30:01.582Z,52.68
2023-01-27T11:32:25.336Z,51.69
2023-01-27T11:34:36.448Z,53.00
2023-01-27T11:36:38.977Z,53.41
2023-01-27T11:38:41.073Z,53.50
2023-01-27T11:40:45.618Z,53.16
2023-01-27T11:42:49.641Z,53.70
2023-01-27T11:44:56.387Z,52.45
2023-01-27T11:46:58.961Z,53.55
2023-01-27T11:49:02.682Z,52.79
2023-01-27T11:51:06.078Z,52.37
2023-01-27T11:53:21.403Z,52.63
2023-01-27T11:55:28.103Z,52.79
2023-01-27T11:57:30.491Z,51.71
2023-01-27T11:59:37.969Z,52.00
2023-01-27T12:01:48.446Z,52.29
2023-01-27T12:04:08.278Z,52.16
2023-01-27T12:06:27.198Z,52.17
2023-01-27T12:08:46.837Z,51.95
2023-01-27T12:10:48.813Z,52.11
2023-01-27T12:12:51.362Z,52.53
2023-01-27T12:14:55.003Z,51.74
2023-01-27T12:17:04.141Z,52.01
2023-01-27T12:19:22.991Z,51.52
2023-01-27T12:21:38.439Z,51.63
2023-01-27T12:23:52.915Z,52.02
2023-01-27T12:26:09.278Z,52.30
2023-01-27T12:28:49.719Z,52.06
2023-01-27T12:30:54.538Z,52.31
2023-01-27T12:32:59.630Z,51.96
2023-01-27T12:35:03.251Z,51.80
2023-01-27T12:37:08.387Z,51.93
2023-01-27T12:39:39.874Z,51.41
2023-01-27T12:41:43.235Z,51.96
2023-01-27T12:44:01.829Z,51.16
2023-01-27T12:46:08.804Z,52.12
2023-01-27T12:48:14.003Z,51.63
2023-01-27T12:50:33.653Z,51.21
2023-01-27T12:52:35.674Z,51.88
2023-01-27T12:54:38.028Z,51.37
2023-01-27T12:56:40.230Z,51.62
2023-01-27T12:58:55.785Z,51.12
2023-01-27T13:01:00.282Z,51.53
2023-01-27T13:03:12.486Z,50.81
2023-01-27T13:05:19.293Z,51.05
2023-01-27T13:07:28.478Z,51.05
2023-01-27T13:09:45.578Z,51.11
2023-01-27T13:11:47.830Z,51.81
2023-01-27T13:13:51.540Z,51.45
2023-01-27T13:16:14.997Z,51.92
2023-01-27T13:18:23.923Z,52.71
2023-01-27T13:20:43.413Z,53.88
2023-01-27T13:23:24.255Z,53.88
2023-01-27T13:25:39.243Z,53.99
2023-01-27T13:27:41.727Z,54.04
2023-01-27T13:29:54.855Z,54.30
2023-01-27T13:32:04.389Z,54.07
2023-01-27T13:34:18.905Z,53.57
2023-01-27T13:36:28.263Z,53.98
2023-01-27T13:38:52.802Z,54.22
2023-01-27T13:40:54.796Z,54.08
2023-01-27T13:43:09.323Z,54.53
2023-01-27T13:45:22.053Z,53.99
2023-01-27T13:47:29.189Z,54.47
2023-01-27T13:49:50.378Z,54.29
2023-01-27T13:51:52.470Z,54.22
2023-01-27T13:54:03.911Z,54.50
2023-01-27T13:56:06.041Z,54.20
2023-01-27T13:58:39.703Z,54.88
2023-01-27T14:01:01.876Z,54.91
2023-01-27T14:03:46.250Z,55.31
2023-01-27T14:05:57.058Z,54.77
2023-01-27T14:08:20.724Z,55.06
2023-01-27T14:10:35.324Z,54.54
2023-01-27T14:12:58.128Z,54.96
2023-01-27T14:15:21.189Z,55.13
2023-01-27T14:17:30.340Z,54.57
2023-01-27T14:20:01.450Z,54.68
2023-01-27T14:22:33.895Z,55.09
2023-01-27T14:24:53.098Z,54.71
2023-01-27T14:27:10.264Z,54.60
2023-01-27T14:29:33.900Z,54.34
2023-01-27T14:31:56.550Z,55.41
2023-01-27T14:34:34.095Z,54.98
2023-01-27T14:36:45.083Z,54.76
2023-01-27T14:39:01.101Z,54.82
2023-01-27T14:41:18.322Z,54.81
2023-01-27T14:43:39.559Z,54.54
2023-01-27T14:45:50.907Z,54.65
2023-01-27T14:48:17.385Z,54.98
2023-01-27T14:50:26.610Z,55.10
2023-01-27T14:53:20.795Z,55.41
2023-01-27T14:55:33.511Z,55.69
2023-01-27T14:57:55.984Z,55.01
2023-01-27T15:00:33.178Z,55.65
2023-01-27T15:03:03.096Z,55.12
2023-01-27T15:05:31.164Z,54.76
2023-01-27T15:07:41.854Z,55.25
2023-01-27T15:10:10.793Z,55.66
2023-01-27T15:12:37.944Z,55.34
2023-01-27T15:14:59.374Z,55.15
2023-01-27T15:17:14.773Z,55.34
2023-01-27T15:19:44.809Z,55.84
2023-01-27T15:22:34.144Z,55.59
2023-01-27T15:24:59.348Z,56.45
2023-01-27T15:27:04.333Z,55.79
2023-01-27T15:29:07.552Z,56.09
2023-01-27T15:31:16.733Z,56.45
2023-01-27T15:33:53.003Z,56.26
2023-01-27T15:36:27.119Z,56.76
2023-01-27T15:38:34.629Z,55.89
2023-01-27T15:41:21.505Z,56.84
2023-01-27T15:43:25.663Z,56.42
2023-01-27T15:45:38.029Z,56.74
2023-01-27T15:47:41.882Z,56.39
2023-01-27T15:49:48.540Z,56.16
2023-01-27T15:51:54.800Z,56.61
2023-01-27T15:54:00.240Z,56.78
2023-01-27T15:56:03.230Z,56.56
2023-01-27T15:58:54.840Z,57.89
2023-01-27T16:00:58.869Z,56.75
2023-01-27T16:03:04.904Z,58.14
2023-01-27T16:05:27.133Z,58.14
2023-01-27T16:07:32.951Z,57.35
2023-01-27T16:09:46.126Z,57.78
2023-01-27T16:12:02.615Z,58.20
2023-01-27T16:14:17.437Z,57.79
2023-01-27T16:16:19.524Z,57.47
2023-01-27T16:18:26.469Z,57.62
2023-01-27T16:20:54.758Z,57.82
2023-01-27T16:23:02.808Z,58.15
2023-01-27T16:25:17.677Z,58.42
2023-01-27T16:27:52.224Z,58.42
2023-01-27T16:30:22.548Z,58.39
2023-01-27T16:32:35.696Z,58.33
2023-01-27T16:34:46.853Z,58.45
2023-01-27T16:37:02.150Z,59.08
2023-01-27T16:39:26.082Z,58.91
2023-01-27T16:41:30.957Z,58.62
2023-01-27T16:43:43.611Z,59.18
2023-01-27T16:45:49.270Z,58.13
2023-01-27T16:48:05.647Z,58.49
2023-01-27T16:50:45.889Z,58.77
2023-01-27T16:52:48.072Z,58.85
2023-01-27T16:54:52.484Z,58.87
2023-01-27T16:56:55.150Z,58.82
2023-01-27T16:59:02.140Z,59.12
2023-01-27T17:01:04.928Z,58.99
2023-01-27T17:03:16.515Z,58.76
2023-01-27T17:05:19.960Z,58.35
2023-01-27T17:07:22.623Z,58.59
2023-01-27T17:09:32.139Z,58.41
2023-01-27T17:11:34.309Z,58.56
2023-01-27T17:14:01.305Z,59.47
2023-01-27T17:16:06.467Z,58.88
2023-01-27T17:18:11.960Z,59.98
2023-01-27T17:20:23.565Z,59.54
2023-01-27T17:22:42.452Z,59.36
2023-01-27T17:24:52.970Z,59.38
2023-01-27T17:27:05.794Z,59.39
2023-01-27T17:29:07.698Z,59.30
2023-01-27T17:31:17.832Z,59.37
2023-01-27T17:33:22.023Z,59.57
2023-01-27T17:35:30.769Z,59.46
2023-01-27T17:37:33.478Z,59.00
2023-01-27T17:39:38.123Z,59.41
2023-01-27T17:41:40.128Z,60.04
2023-01-27T17:43:44.899Z,59.85
2023-01-27T17:45:47.617Z,59.33
2023-01-27T17:47:50.525Z,59.71
2023-01-27T17:49:52.624Z,59.89
2023-01-27T17:51:59.579Z,60.01
2023-01-27T17:54:13.624Z,59.73
2023-01-27T17:56:23.149Z,60.19
2023-01-27T17:58:29.531Z,59.70
2023-01-27T18:00:40.325Z,59.55
2023-01-27T18:02:54.104Z,60.26
2023-01-27T18:05:04.520Z,60.26
2023-01-27T18:07:06.594Z,59.86
2023-01-27T18:09:27.106Z,60.56
2023-01-27T18:11:32.197Z,59.36
2023-01-27T18:13:37.407Z,59.29
2023-01-27T18:15:42.855Z,60.13
2023-01-27T18:17:57.709Z,59.96
2023-01-27T18:19:59.871Z,59.51
2023-01-27T18:22:07.308Z,60.19
2023-01-27T18:24:21.308Z,60.16
2023-01-27T18:26:43.226Z,60.44
2023-01-27T18:28:49.053Z,59.97
2023-01-27T18:30:51.556Z,59.87
2023-01-27T18:33:01.826Z,60.50
2023-01-27T18:35:27.949Z,59.75
2023-01-27T18:37:33.291Z,59.92
2023-01-27T18:39:38.773Z,59.87
2023-01-27T18:41:47.287Z,60.38
2023-01-27T18:43:49.501Z,59.96
2023-01-27T18:45:51.477Z,60.16
2023-01-27T18:47:54.172Z,59.86
2023-01-27T18:49:56.399Z,59.84
2023-01-27T18:51:58.354Z,59.78
2023-01-27T18:54:00.560Z,59.81
2023-01-27T18:56:04.549Z,59.78
2023-01-27T18:58:06.684Z,59.91
2023-01-27T19:00:11.926Z,59.74
2023-01-27T19:02:18.480Z,60.07
2023-01-27T19:04:22.036Z,60.13
2023-01-27T19:06:24.121Z,60.13
2023-01-27T19:08:27.363Z,60.77
2023-01-27T19:10:32.334Z,60.34
2023-01-27T19:12:34.478Z,60.44
2023-01-27T19:14:37.096Z,60.56
2023-01-27T19:16:39.194Z,60.21
2023-01-27T19:18:42.197Z,60.45
2023-01-27T19:20:44.264Z,60.59
2023-01-27T19:22:47.875Z,60.73
2023-01-27T19:24:50.740Z,60.58
2023-01-27T19:26:52.759Z,61.13
2023-01-27T19:28:57.359Z,61.18
2023-01-27T19:31:00.279Z,61.28
2023-01-27T19:33:03.203Z,60.83
2023-01-27T19:35:05.865Z,61.00
2023-01-27T19:37:18.581Z,61.01
2023-01-27T19:39:20.759Z,60.73
2023-01-27T19:41:22.908Z,61.19
2023-01-27T19:43:24.950Z,60.89
2023-01-27T19:45:28.325Z,60.82
2023-01-27T19:47:30.236Z,60.60
2023-01-27T19:49:32.300Z,60.72
2023-01-27T19:51:34.444Z,60.72
2023-01-27T19:53:38.660Z,60.94
2023-01-27T19:55:41.326Z,61.00
2023-01-27T19:57:44.606Z,61.13
2023-01-27T19:59:46.862Z,60.64
2023-01-27T20:01:49.147Z,60.88
2023-01-27T20:03:52.365Z,60.95
2023-01-27T20:05:54.493Z,60.63
2023-01-27T20:07:58.602Z,60.95
2023-01-27T20:10:00.673Z,61.34
2023-01-27T20:12:02.734Z,61.56
2023-01-27T20:14:19.384Z,61.72
2023-01-27T20:16:22.775Z,61.05
2023-01-27T20:18:24.874Z,61.11
2023-01-27T20:20:27.649Z,61.20
2023-01-27T20:22:30.003Z,61.43
2023-01-27T20:24:32.246Z,61.49
2023-01-27T20:26:35.034Z,61.19
2023-01-27T20:28:40.003Z,61.25
2023-01-27T20:30:43.317Z,61.88
2023-01-27T20:32:45.590Z,61.53
2023-01-27T20:34:47.985Z,61.76
2023-01-27T20:36:49.968Z,62.20
2023-01-27T20:38:53.088Z,62.09
2023-01-27T20:40:55.157Z,61.85
2023-01-27T20:42:57.375Z,61.88
2023-01-27T20:44:59.503Z,62.24
2023-01-27T20:47:01.635Z,62.44
2023-01-27T20:49:03.688Z,62.29
2023-01-27T20:51:09.384Z,62.17
2023-01-27T20:53:11.401Z,62.25
2023-01-27T20:55:14.933Z,62.16
2023-01-27T20:57:20.357Z,62.21
2023-01-27T20:59:22.399Z,62.54
2023-01-27T21:01:24.641Z,62.42
2023-01-27T21:03:27.002Z,62.60
2023-01-27T21:05:29.085Z,62.40
2023-01-27T21:07:31.273Z,62.17
2023-01-27T21:09:33.240Z,62.38
2023-01-27T21:11:35.299Z,62.67
2023-01-27T21:13:37.851Z,62.70
2023-01-27T21:15:47.437Z,63.01
2023-01-27T21:17:50.295Z,62.77
2023-01-27T21:19:52.506Z,62.76
2023-01-27T21:21:54.790Z,62.96
2023-01-27T21:24:00.599Z,63.37
2023-01-27T21:26:09.677Z,63.34
2023-01-27T21:28:11.868Z,62.55
2023-01-27T21:30:14.241Z,62.66
2023-01-27T21:32:16.457Z,63.13
2023-01-27T21:34:18.544Z,63.17
2023-01-27T21:36:20.545Z,63.23
2023-01-27T21:38:22.689Z,62.92
2023-01-27T21:40:25.288Z,62.70
2023-01-27T21:42:46.388Z,62.73
2023-01-27T21:45:07.040Z,62.58
2023-01-27T21:47:11.778Z,62.77
2023-01-27T21:49:14.559Z,63.44
2023-01-27T21:51:17.082Z,63.02
2023-01-27T21:53:19.183Z,63.01
2023-01-27T21:55:27.404Z,63.91
2023-01-27T21:57:29.899Z,62.88
2023-01-27T21:59:34.433Z,62.86
2023-01-27T22:01:36.627Z,62.89
2023-01-27T22:03:38.941Z,63.09
2023-01-27T22:05:41.238Z,63.04
2023-01-27T22:07:43.283Z,62.86
2023-01-27T22:09:45.642Z,62.86
2023-01-27T22:11:48.085Z,62.92
2023-01-27T22:13:50.222Z,63.02
2023-01-27T22:15:52.616Z,62.84
2023-01-27T22:17:55.857Z,62.92
2023-01-27T22:19:57.951Z,62.97
2023-01-27T22:22:00.048Z,62.96
2023-01-27T22:24:02.814Z,63.03
2023-01-27T22:26:09.200Z,63.17
2023-01-27T22:28:11.359Z,62.99
2023-01-27T22:30:15.883Z,63.29
2023-01-27T22:32:18.211Z,62.71
2023-01-27T22:34:20.752Z,62.67
2023-01-27T22:36:23.313Z,62.88
2023-01-27T22:38:25.636Z,62.81
2023-01-27T22:40:28.353Z,62.67
2023-01-27T22:42:30.579Z,62.91
2023-01-27T22:44:32.927Z,62.67
2023-01-27T22:46:35.328Z,62.90
2023-01-27T22:48:37.806Z,63.22
2023-01-27T22:50:40.849Z,63.39
2023-01-27T22:52:43.109Z,62.76
2023-01-27T22:54:45.536Z,62.89
2023-01-27T22:56:47.923Z,63.27
2023-01-27T22:58:50.296Z,62.75
2023-01-27T23:00:52.927Z,62.87
2023-01-27T23:02:55.133Z,62.84
2023-01-27T23:04:57.873Z,62.74
2023-01-27T23:07:00.083Z,63.11
2023-01-27T23:09:02.205Z,63.07
2023-01-27T23:11:06.899Z,62.76
2023-01-27T23:13:09.052Z,63.00
2023-01-27T23:15:12.335Z,63.00
2023-01-27T23:17:15.016Z,63.15
2023-01-27T23:19:17.673Z,63.38
2023-01-27T23:21:19.655Z,63.54
2023-01-27T23:23:23.439Z,63.52
2023-01-27T23:25:25.907Z,63.39
2023-01-27T23:27:29.094Z,63.03
2023-01-27T23:29:31.788Z,62.94
2023-01-27T23:31:34.316Z,62.75
2023-01-27T23:33:41.128Z,63.67
2023-01-27T23:35:44.035Z,63.60
2023-01-27T23:37:46.332Z,63.30
2023-01-27T23:39:49.906Z,63.25
2023-01-27T23:41:52.359Z,63.43
2023-01-27T23:43:56.317Z,63.30
2023-01-27T23:45:59.212Z,63.83
2023-01-27T23:48:01.473Z,63.78
2023-01-27T23:50:06.275Z,63.83
2023-01-27T23:52:09.209Z,63.84
2023-01-27T23:54:11.379Z,64.03
2023-01-27T23:56:16.296Z,63.57
2023-01-27T23:58:19.156Z,63.17
